createdAt,value
2018-10-16T00:00:15.743Z,9.10
2018-10-16T00:02:45.210Z,9.70
2018-10-16T00:05:14.086Z,8.70
2018-10-16T00:07:42.927Z,9.90
2018-10-16T00:10:11.668Z,9.83
2018-10-16T00:12:40.511Z,9.87
2018-10-16T00:15:10.556Z,9.03
2018-10-16T00:17:39.526Z,8.73
2018-10-16T00:20:08.399Z,9.60
2018-10-16T00:22:37.202Z,9.70
2018-10-16T00:25:07.550Z,9.70
2018-10-16T00:27:36.264Z,8.60
2018-10-16T00:30:05.205Z,9.43
2018-10-16T00:32:33.981Z,10.33
2018-10-16T00:35:02.642Z,9.27
2018-10-16T00:37:31.474Z,8.10
2018-10-16T00:40:00.449Z,8.53
2018-10-16T00:42:29.310Z,9.40
2018-10-16T00:44:58.327Z,9.30
2018-10-16T00:47:27.108Z,8.97
2018-10-16T00:49:55.875Z,7.90
2018-10-16T00:52:24.678Z,9.67
2018-10-16T00:54:53.583Z,8.60
2018-10-16T00:57:22.356Z,9.10
2018-10-16T00:59:51.150Z,10.00
2018-10-16T01:02:20.036Z,8.57
2018-10-16T01:04:48.797Z,8.47
2018-10-16T01:07:17.551Z,8.60
2018-10-16T01:09:46.312Z,8.60
2018-10-16T01:12:15.247Z,7.83
2018-10-16T01:14:44.357Z,8.77
2018-10-16T01:17:13.230Z,8.77
2018-10-16T01:19:41.996Z,9.70
2018-10-16T01:22:10.902Z,9.20
2018-10-16T01:24:39.779Z,8.53
2018-10-16T01:27:08.681Z,8.00
2018-10-16T01:29:37.516Z,9.43
2018-10-16T01:32:06.448Z,8.73
2018-10-16T01:34:35.188Z,8.33
2018-10-16T01:37:03.953Z,9.17
2018-10-16T01:39:32.711Z,8.77
2018-10-16T01:42:01.552Z,8.37
2018-10-16T01:44:30.291Z,8.50
2018-10-16T01:46:59.103Z,8.73
2018-10-16T01:49:27.770Z,8.50
2018-10-16T01:51:56.547Z,8.60
2018-10-16T01:54:25.511Z,8.70
2018-10-16T01:56:54.367Z,10.43
2018-10-16T01:59:23.231Z,8.67
2018-10-16T02:01:53.006Z,8.00
2018-10-16T02:04:21.840Z,9.30
2018-10-16T02:06:50.905Z,8.27
2018-10-16T02:09:19.682Z,8.40
2018-10-16T02:11:48.538Z,9.17
2018-10-16T02:14:17.267Z,9.73
2018-10-16T02:16:46.066Z,7.90
2018-10-16T02:19:15.039Z,8.30
2018-10-16T02:21:43.895Z,9.07
2018-10-16T02:24:12.611Z,8.60
2018-10-16T02:26:41.509Z,8.60
2018-10-16T02:29:10.606Z,8.57
2018-10-16T02:31:39.310Z,8.80
2018-10-16T02:34:08.171Z,9.13
2018-10-16T02:36:36.998Z,10.13
2018-10-16T02:39:08.282Z,10.00
2018-10-16T02:41:37.339Z,9.90
2018-10-16T02:44:06.810Z,10.73
2018-10-16T02:46:35.534Z,9.67
2018-10-16T02:49:04.971Z,9.17
2018-10-16T02:51:33.822Z,9.30
2018-10-16T02:54:02.574Z,9.10
2018-10-16T02:56:31.306Z,8.93
2018-10-16T02:59:00.062Z,9.87
2018-10-16T03:01:29.021Z,9.20
2018-10-16T03:03:57.806Z,9.70
2018-10-16T03:06:26.531Z,9.00
2018-10-16T03:08:55.227Z,9.43
2018-10-16T03:11:24.031Z,8.27
2018-10-16T03:13:53.090Z,8.80
2018-10-16T03:16:21.803Z,8.83
2018-10-16T03:18:50.571Z,8.70
2018-10-16T03:21:19.338Z,9.07
2018-10-16T03:23:48.094Z,9.80
2018-10-16T03:26:16.878Z,9.13
2018-10-16T03:28:45.630Z,9.70
2018-10-16T03:31:14.702Z,9.13
2018-10-16T03:33:43.397Z,9.33
2018-10-16T03:36:12.251Z,9.43
2018-10-16T03:38:41.002Z,8.97
2018-10-16T03:41:10.030Z,9.40
2018-10-16T03:43:39.786Z,10.00
2018-10-16T03:46:08.935Z,9.70
2018-10-16T03:48:37.758Z,9.10
2018-10-16T03:51:06.503Z,8.57
2018-10-16T03:53:35.251Z,7.73
2018-10-16T03:56:04.024Z,8.83
2018-10-16T03:58:32.729Z,9.77
2018-10-16T04:01:01.607Z,8.77
2018-10-16T04:03:30.314Z,9.07
2018-10-16T04:05:59.186Z,9.27
2018-10-16T04:08:28.054Z,9.43
2018-10-16T04:10:56.918Z,9.40
2018-10-16T04:13:25.666Z,8.33
2018-10-16T04:15:54.539Z,8.73
2018-10-16T04:18:23.241Z,8.83
2018-10-16T04:20:52.163Z,10.00
2018-10-16T04:23:20.807Z,9.23
2018-10-16T04:25:49.555Z,9.47
2018-10-16T04:28:18.218Z,10.07
2018-10-16T04:30:47.011Z,9.67
2018-10-16T04:33:15.710Z,10.83
2018-10-16T04:35:44.477Z,11.00
2018-10-16T04:38:13.164Z,10.37
2018-10-16T04:40:42.147Z,9.37
2018-10-16T04:43:10.886Z,9.27
2018-10-16T04:45:39.871Z,10.00
2018-10-16T04:48:08.590Z,8.60
2018-10-16T04:50:37.507Z,8.93
2018-10-16T04:53:07.246Z,10.20
2018-10-16T04:55:36.050Z,8.20
2018-10-16T04:58:04.812Z,9.80
2018-10-16T05:00:33.534Z,9.10
2018-10-16T05:03:02.474Z,9.20
2018-10-16T05:05:31.715Z,9.83
2018-10-16T05:08:00.994Z,9.27
2018-10-16T05:10:29.916Z,10.20
2018-10-16T05:12:58.768Z,9.67
2018-10-16T05:15:30.976Z,9.30
2018-10-16T05:20:39.614Z,10.87
2018-10-16T05:23:08.648Z,9.20
2018-10-16T05:25:37.649Z,10.00
2018-10-16T05:28:06.355Z,9.90
2018-10-16T05:30:35.250Z,8.60
2018-10-16T05:33:04.043Z,9.00
2018-10-16T05:35:32.767Z,9.10
2018-10-16T05:38:01.631Z,8.50
2018-10-16T05:40:30.535Z,8.80
2018-10-16T05:42:59.423Z,10.60
2018-10-16T05:45:29.920Z,9.53
2018-10-16T05:47:58.930Z,9.50
2018-10-16T05:50:27.736Z,9.70
2018-10-16T05:52:56.995Z,9.10
2018-10-16T05:55:25.993Z,9.77
2018-10-16T05:57:54.810Z,9.20
2018-10-16T06:00:35.770Z,8.73
2018-10-16T06:03:04.897Z,9.07
2018-10-16T06:05:33.775Z,8.67
2018-10-16T06:08:02.582Z,10.47
2018-10-16T06:10:31.321Z,9.43
2018-10-16T06:13:00.010Z,9.50
2018-10-16T06:15:29.026Z,11.00
2018-10-16T06:17:57.799Z,8.93
2018-10-16T06:20:26.728Z,10.07
2018-10-16T06:22:55.515Z,9.37
2018-10-16T06:25:24.387Z,8.97
2018-10-16T06:27:53.293Z,9.70
2018-10-16T06:30:22.329Z,9.60
2018-10-16T06:32:51.002Z,10.30
2018-10-16T06:35:19.765Z,9.90
2018-10-16T06:37:48.562Z,10.37
2018-10-16T06:40:17.305Z,11.37
2018-10-16T06:42:46.074Z,11.07
2018-10-16T06:45:14.971Z,8.93
2018-10-16T06:47:43.963Z,10.30
2018-10-16T06:50:12.804Z,9.73
2018-10-16T06:52:41.578Z,11.10
2018-10-16T06:55:10.485Z,10.10
2018-10-16T06:57:39.173Z,11.03
2018-10-16T07:00:08.651Z,11.33
2018-10-16T07:02:37.495Z,10.20
2018-10-16T07:05:07.807Z,9.80
2018-10-16T07:07:36.671Z,11.00
2018-10-16T07:10:06.768Z,12.63
2018-10-16T07:12:35.606Z,11.43
2018-10-16T07:15:04.516Z,11.60
2018-10-16T07:17:33.375Z,12.03
2018-10-16T07:20:02.160Z,10.80
2018-10-16T07:22:30.984Z,11.30
2018-10-16T07:24:59.731Z,11.60
2018-10-16T07:27:28.593Z,11.97
2018-10-16T07:29:57.452Z,11.83
2018-10-16T07:32:26.504Z,13.27
2018-10-16T07:34:55.312Z,11.17
2018-10-16T07:37:24.047Z,11.20
2018-10-16T07:39:52.816Z,11.43
2018-10-16T07:42:21.732Z,11.63
2018-10-16T07:44:50.646Z,11.40
2018-10-16T07:47:20.081Z,12.20
2018-10-16T07:49:48.969Z,11.80
2018-10-16T07:52:17.806Z,12.10
2018-10-16T07:54:46.579Z,12.60
2018-10-16T07:57:15.521Z,12.27
2018-10-16T07:59:44.218Z,12.00
2018-10-16T08:02:13.064Z,12.97
2018-10-16T08:04:41.890Z,13.83
2018-10-16T08:07:10.716Z,12.20
2018-10-16T08:09:39.455Z,12.60
2018-10-16T08:12:10.223Z,12.67
2018-10-16T08:14:39.871Z,13.07
2018-10-16T08:17:08.970Z,11.73
2018-10-16T08:19:37.742Z,12.70
2018-10-16T08:22:06.515Z,12.50
2018-10-16T08:24:35.234Z,12.87
2018-10-16T08:27:04.018Z,11.93
2018-10-16T08:29:32.718Z,11.93
2018-10-16T08:32:01.554Z,11.30
2018-10-16T08:34:30.337Z,11.43
2018-10-16T08:36:59.316Z,11.07
2018-10-16T08:39:33.957Z,12.90
2018-10-16T08:45:14.348Z,12.70
2018-10-16T08:47:54.244Z,10.50
2018-10-16T08:50:35.386Z,10.80
2018-10-16T08:53:04.252Z,11.33
2018-10-16T08:55:33.482Z,11.43
2018-10-16T08:58:02.957Z,13.60
2018-10-16T09:00:31.771Z,11.57
2018-10-16T09:03:00.518Z,12.33
2018-10-16T09:05:29.957Z,13.30
2018-10-16T09:07:58.726Z,11.50
2018-10-16T09:10:28.138Z,11.30
2018-10-16T09:12:56.930Z,11.60
2018-10-16T09:15:25.944Z,13.33
2018-10-16T09:17:54.793Z,12.67
2018-10-16T09:20:23.710Z,12.10
2018-10-16T09:22:52.553Z,12.37
2018-10-16T09:25:21.338Z,11.30
2018-10-16T09:27:50.110Z,11.93
2018-10-16T09:30:18.948Z,13.57
2018-10-16T09:32:47.775Z,11.73
2018-10-16T09:35:16.560Z,12.03
2018-10-16T09:37:45.384Z,11.07
2018-10-16T09:40:14.223Z,12.03
2018-10-16T09:42:43.059Z,11.50
2018-10-16T09:45:12.138Z,11.13
2018-10-16T09:47:40.871Z,11.27
2018-10-16T09:50:10.617Z,13.60
2018-10-16T09:52:39.488Z,11.60
2018-10-16T09:55:09.964Z,10.90
2018-10-16T09:57:38.870Z,12.13
2018-10-16T10:00:14.134Z,11.90
2018-10-16T10:02:43.227Z,13.83
2018-10-16T10:05:12.181Z,12.57
2018-10-16T10:07:41.053Z,13.13
2018-10-16T10:10:10.091Z,13.57
2018-10-16T10:12:39.144Z,13.23
2018-10-16T10:15:08.147Z,14.43
2018-10-16T10:17:37.315Z,13.27
2018-10-16T10:20:07.008Z,13.27
2018-10-16T10:22:35.833Z,13.77
2018-10-16T10:25:05.093Z,12.07
2018-10-16T10:27:33.811Z,12.07
2018-10-16T10:30:03.035Z,10.80
2018-10-16T10:32:32.198Z,12.23
2018-10-16T10:35:01.122Z,11.10
2018-10-16T10:37:29.887Z,13.03
2018-10-16T10:39:58.693Z,11.20
2018-10-16T10:42:27.494Z,9.80
2018-10-16T10:44:56.484Z,10.07
2018-10-16T10:47:25.390Z,11.00
2018-10-16T10:49:54.214Z,12.10
2018-10-16T10:52:22.949Z,11.20
2018-10-16T10:54:51.739Z,10.70
2018-10-16T10:57:20.521Z,11.10
2018-10-16T10:59:49.280Z,10.17
2018-10-16T11:02:18.129Z,9.77
2018-10-16T11:04:46.994Z,9.93
2018-10-16T11:07:15.782Z,10.80
2018-10-16T11:09:44.642Z,8.40
2018-10-16T11:12:13.303Z,9.13
2018-10-16T11:14:42.199Z,8.03
2018-10-16T11:17:10.890Z,9.33
2018-10-16T11:19:39.670Z,10.43
2018-10-16T11:22:08.454Z,12.07
2018-10-16T11:24:37.174Z,9.53
2018-10-16T11:27:06.002Z,9.13
2018-10-16T11:29:34.738Z,8.63
2018-10-16T11:32:03.562Z,9.10
2018-10-16T11:34:32.423Z,9.63
2018-10-16T11:37:01.324Z,9.30
2018-10-16T11:39:33.119Z,9.17
2018-10-16T11:42:02.076Z,8.97
2018-10-16T11:44:32.826Z,8.73
2018-10-16T11:47:17.350Z,9.27
2018-10-16T11:49:47.130Z,10.10
2018-10-16T11:52:21.919Z,8.63
2018-10-16T11:54:50.691Z,9.83
2018-10-16T11:57:19.572Z,9.37
2018-10-16T11:59:48.426Z,7.47
2018-10-16T12:02:17.349Z,8.60
2018-10-16T12:04:46.209Z,7.37
2018-10-16T12:07:15.309Z,8.10
2018-10-16T12:09:44.296Z,7.33
2018-10-16T12:12:13.058Z,8.10
2018-10-16T12:14:41.958Z,7.37
2018-10-16T12:17:23.027Z,7.17
2018-10-16T12:19:58.369Z,7.03
2018-10-16T12:22:27.062Z,7.70
2018-10-16T12:24:55.923Z,7.60
2018-10-16T12:27:25.234Z,6.63
2018-10-16T12:29:54.019Z,7.63
2018-10-16T12:32:22.788Z,8.73
2018-10-16T12:34:51.422Z,7.77
2018-10-16T12:37:20.202Z,7.20
2018-10-16T12:39:49.081Z,7.30
2018-10-16T12:42:17.835Z,7.27
2018-10-16T12:44:46.792Z,6.53
2018-10-16T12:47:15.725Z,7.13
2018-10-16T12:49:44.454Z,7.40
2018-10-16T12:52:13.296Z,8.30
2018-10-16T12:54:41.994Z,7.23
2018-10-16T12:57:10.735Z,6.60
2018-10-16T12:59:39.560Z,8.07
2018-10-16T13:02:08.324Z,7.70
2018-10-16T13:04:37.168Z,8.07
2018-10-16T13:07:13.219Z,7.23
2018-10-16T13:09:42.009Z,7.63
2018-10-16T13:12:11.031Z,7.40
2018-10-16T13:14:39.887Z,7.67
2018-10-16T13:17:08.720Z,7.23
2018-10-16T13:19:37.573Z,6.80
2018-10-16T13:22:06.461Z,7.30
2018-10-16T13:24:35.356Z,6.93
2018-10-16T13:27:04.138Z,8.17
2018-10-16T13:29:33.254Z,8.43
2018-10-16T13:32:01.972Z,7.23
2018-10-16T13:34:30.766Z,8.70
2018-10-16T13:36:59.626Z,6.43
2018-10-16T13:39:28.473Z,7.60
2018-10-16T13:41:57.215Z,7.07
2018-10-16T13:44:26.183Z,7.13
2018-10-16T13:46:55.000Z,7.77
2018-10-16T13:49:23.760Z,8.60
2018-10-16T13:51:52.590Z,6.73
2018-10-16T13:54:21.385Z,7.90
2018-10-16T13:56:50.325Z,7.70
2018-10-16T13:59:19.170Z,8.90
2018-10-16T14:01:47.887Z,8.40
2018-10-16T14:04:16.727Z,7.23
2018-10-16T14:06:45.467Z,8.50
2018-10-16T14:09:14.205Z,7.10
2018-10-16T14:11:43.255Z,8.60
2018-10-16T14:14:12.069Z,6.57
2018-10-16T14:16:40.861Z,7.50
2018-10-16T14:19:09.571Z,8.73
2018-10-16T14:21:38.471Z,7.83
2018-10-16T14:24:07.258Z,6.50
2018-10-16T14:26:36.332Z,8.23
2018-10-16T14:29:05.774Z,7.50
2018-10-16T14:31:34.469Z,8.57
2018-10-16T14:34:03.281Z,7.37
2018-10-16T14:36:32.136Z,8.37
2018-10-16T14:39:00.950Z,8.47
2018-10-16T14:41:30.002Z,8.50
2018-10-16T14:43:58.852Z,8.43
2018-10-16T14:46:27.565Z,7.70
2018-10-16T14:48:56.386Z,7.90
2018-10-16T14:51:25.135Z,9.13
2018-10-16T14:53:53.982Z,9.00
2018-10-16T14:56:22.783Z,9.07
2018-10-16T14:58:51.610Z,8.83
2018-10-16T15:01:20.299Z,8.10
2018-10-16T15:03:49.260Z,7.50
2018-10-16T15:06:17.911Z,8.17
2018-10-16T15:08:46.707Z,8.63
2018-10-16T15:11:15.593Z,7.43
2018-10-16T15:13:44.432Z,7.70
2018-10-16T15:16:13.250Z,8.13
2018-10-16T15:18:41.958Z,8.90
2018-10-16T15:21:10.720Z,7.43
2018-10-16T15:23:39.695Z,8.53
2018-10-16T15:26:08.648Z,7.50
2018-10-16T15:28:37.479Z,7.33
2018-10-16T15:31:06.202Z,7.30
2018-10-16T15:33:35.131Z,7.53
2018-10-16T15:36:03.907Z,8.20
2018-10-16T15:38:32.741Z,7.73
2018-10-16T15:41:01.788Z,7.10
2018-10-16T15:43:30.694Z,7.70
2018-10-16T15:45:59.506Z,7.00
2018-10-16T15:48:28.310Z,7.50
2018-10-16T15:50:57.140Z,7.57
2018-10-16T15:53:25.884Z,8.27
2018-10-16T15:55:54.614Z,8.60
2018-10-16T15:58:23.503Z,7.93
2018-10-16T16:00:52.184Z,8.93
2018-10-16T16:03:21.106Z,8.00
2018-10-16T16:05:49.814Z,7.77
2018-10-16T16:08:18.572Z,8.30
2018-10-16T16:10:47.379Z,7.97
2018-10-16T16:13:16.132Z,8.50
2018-10-16T16:15:44.880Z,6.60
2018-10-16T16:18:13.797Z,8.87
2018-10-16T16:20:42.695Z,8.03
2018-10-16T16:23:11.554Z,8.00
2018-10-16T16:25:40.489Z,7.37
2018-10-16T16:28:09.468Z,7.40
2018-10-16T16:30:38.175Z,7.70
2018-10-16T16:33:07.180Z,7.00
2018-10-16T16:35:35.966Z,7.87
2018-10-16T16:38:05.048Z,7.37
2018-10-16T16:40:33.690Z,8.07
2018-10-16T16:43:02.535Z,8.90
2018-10-16T16:45:31.457Z,7.70
2018-10-16T16:48:00.235Z,7.47
2018-10-16T16:50:29.039Z,7.83
2018-10-16T16:52:57.914Z,7.93
2018-10-16T16:55:26.787Z,7.87
2018-10-16T16:57:55.593Z,9.03
2018-10-16T17:00:24.355Z,8.40
2018-10-16T17:02:53.191Z,7.60
2018-10-16T17:05:22.050Z,8.63
2018-10-16T17:07:50.987Z,8.53
2018-10-16T17:10:19.919Z,9.40
2018-10-16T17:12:48.783Z,9.33
2018-10-16T17:15:17.694Z,8.17
2018-10-16T17:17:47.315Z,9.23
2018-10-16T17:20:16.053Z,10.00
2018-10-16T17:22:44.924Z,8.97
2018-10-16T17:25:14.857Z,9.13
2018-10-16T17:27:44.327Z,9.83
2018-10-16T17:30:15.147Z,9.30
2018-10-16T17:32:44.476Z,9.60
2018-10-16T17:35:13.775Z,10.40
2018-10-16T17:37:43.189Z,9.80
2018-10-16T17:40:13.776Z,8.47
2018-10-16T17:42:42.748Z,7.80
2018-10-16T17:45:13.064Z,9.27
2018-10-16T17:47:42.321Z,8.70
2018-10-16T17:50:13.035Z,8.93
2018-10-16T17:52:42.130Z,9.27
2018-10-16T17:55:11.951Z,9.33
2018-10-16T17:57:41.226Z,9.47
2018-10-16T18:00:12.861Z,9.57
2018-10-16T18:02:42.215Z,9.37
2018-10-16T18:05:11.410Z,9.00
2018-10-16T18:07:40.422Z,9.23
2018-10-16T18:10:09.546Z,10.67
2018-10-16T18:12:38.511Z,8.97
2018-10-16T18:15:09.375Z,8.87
2018-10-16T18:17:38.454Z,8.93
2018-10-16T18:20:09.059Z,9.80
2018-10-16T18:22:37.815Z,8.60
2018-10-16T18:25:07.693Z,9.13
2018-10-16T18:27:36.470Z,9.43
2018-10-16T18:30:05.590Z,12.00
2018-10-16T18:32:34.351Z,10.57
2018-10-16T18:35:03.153Z,10.13
2018-10-16T18:37:31.922Z,9.63
2018-10-16T18:40:00.846Z,11.20
2018-10-16T18:42:29.554Z,9.37
2018-10-16T18:44:58.383Z,10.30
2018-10-16T18:47:27.336Z,10.20
2018-10-16T18:49:56.047Z,11.10
2018-10-16T18:52:24.921Z,11.90
2018-10-16T18:54:53.832Z,11.80
2018-10-16T18:57:22.642Z,12.80
2018-10-16T18:59:51.472Z,12.90
2018-10-16T19:02:20.270Z,13.50
2018-10-16T19:04:49.053Z,9.47
2018-10-16T19:07:18.034Z,8.93
2018-10-16T19:09:46.895Z,8.67
2018-10-16T19:12:15.695Z,7.97
2018-10-16T19:14:44.463Z,8.97
2018-10-16T19:17:13.529Z,8.60
2018-10-16T19:19:42.352Z,8.77
2018-10-16T19:22:11.201Z,8.37
2018-10-16T19:24:40.022Z,7.93
2018-10-16T19:27:08.934Z,10.00
2018-10-16T19:29:37.822Z,9.83
2018-10-16T19:32:06.830Z,7.77
2018-10-16T19:34:35.583Z,9.27
2018-10-16T19:37:04.419Z,10.40
2018-10-16T19:39:33.277Z,10.20
2018-10-16T19:42:02.078Z,9.77
2018-10-16T19:44:31.062Z,8.80
2018-10-16T19:46:59.987Z,9.97
2018-10-16T19:49:28.722Z,9.00
2018-10-16T19:51:57.555Z,10.30
2018-10-16T19:54:26.625Z,10.50
2018-10-16T19:56:55.497Z,12.33
2018-10-16T19:59:24.336Z,9.93
2018-10-16T20:01:53.171Z,9.90
2018-10-16T20:04:22.033Z,9.40
2018-10-16T20:06:50.907Z,10.27
2018-10-16T20:09:19.652Z,10.60
2018-10-16T20:11:48.471Z,11.10
2018-10-16T20:14:17.422Z,10.37
2018-10-16T20:16:46.051Z,9.27
2018-10-16T20:19:14.920Z,11.87
2018-10-16T20:21:43.848Z,12.23
2018-10-16T20:24:12.773Z,12.20
2018-10-16T20:26:41.709Z,12.67
2018-10-16T20:29:10.698Z,11.97
2018-10-16T20:31:39.498Z,14.03
2018-10-16T20:34:08.319Z,13.43
2018-10-16T20:36:37.127Z,12.00
2018-10-16T20:39:10.920Z,12.17
2018-10-16T20:41:40.094Z,12.30
2018-10-16T20:44:08.968Z,11.90
2018-10-16T20:46:38.078Z,13.40
2018-10-16T20:49:07.504Z,11.83
2018-10-16T20:51:37.081Z,12.67
2018-10-16T20:54:06.050Z,11.23
2018-10-16T20:56:34.859Z,11.50
2018-10-16T20:59:03.676Z,12.20
2018-10-16T21:01:32.455Z,10.87
2018-10-16T21:04:01.206Z,11.07
2018-10-16T21:06:30.242Z,11.70
2018-10-16T21:08:58.911Z,11.20
2018-10-16T21:11:27.689Z,13.07
2018-10-16T21:13:56.528Z,11.40
2018-10-16T21:16:25.391Z,10.90
2018-10-16T21:18:54.231Z,11.43
2018-10-16T21:21:23.183Z,11.83
2018-10-16T21:23:51.935Z,12.40
2018-10-16T21:26:20.749Z,13.13
2018-10-16T21:28:49.561Z,12.20
2018-10-16T21:31:18.431Z,12.30
2018-10-16T21:33:47.143Z,13.47
2018-10-16T21:36:15.906Z,12.93
2018-10-16T21:38:44.779Z,13.13
2018-10-16T21:41:13.636Z,11.93
2018-10-16T21:43:42.347Z,15.00
2018-10-16T21:46:11.223Z,12.57
2018-10-16T21:48:39.935Z,13.30
2018-10-16T21:51:08.830Z,12.13
2018-10-16T21:53:37.662Z,12.50
2018-10-16T21:56:06.466Z,12.97
2018-10-16T21:58:35.182Z,15.37
2018-10-16T22:01:09.641Z,14.13
2018-10-16T22:03:38.703Z,14.60
2018-10-16T22:06:07.645Z,14.17
2018-10-16T22:08:36.653Z,11.93
2018-10-16T22:11:05.999Z,13.60
2018-10-16T22:13:34.736Z,12.50
2018-10-16T22:16:03.480Z,12.70
2018-10-16T22:18:32.259Z,13.43
2018-10-16T22:21:01.024Z,12.80
2018-10-16T22:23:29.863Z,13.40
2018-10-16T22:25:58.706Z,13.47
2018-10-16T22:28:27.441Z,12.40
2018-10-16T22:30:56.212Z,12.77
2018-10-16T22:33:24.987Z,12.77
2018-10-16T22:35:53.922Z,14.37
2018-10-16T22:38:22.687Z,13.60
2018-10-16T22:40:51.551Z,12.87
2018-10-16T22:43:20.511Z,13.10
2018-10-16T22:45:49.324Z,12.83
2018-10-16T22:48:18.018Z,11.97
2018-10-16T22:50:46.975Z,14.30
2018-10-16T22:53:15.792Z,10.90
2018-10-16T22:55:44.605Z,11.80
2018-10-16T22:58:13.251Z,13.07
2018-10-16T23:00:42.019Z,13.07
2018-10-16T23:03:10.831Z,13.87
2018-10-16T23:05:39.786Z,13.40
2018-10-16T23:08:08.553Z,12.77
2018-10-16T23:10:37.564Z,14.40
2018-10-16T23:13:06.912Z,14.50
2018-10-16T23:15:35.882Z,12.27
2018-10-16T23:18:05.241Z,13.37
2018-10-16T23:20:34.622Z,12.10
2018-10-16T23:23:03.424Z,12.60
2018-10-16T23:25:32.205Z,12.93
2018-10-16T23:28:00.966Z,13.03
2018-10-16T23:30:29.832Z,11.50
2018-10-16T23:32:58.651Z,12.30
2018-10-16T23:35:27.351Z,12.90
2018-10-16T23:37:56.137Z,12.47
2018-10-16T23:40:24.942Z,12.60
2018-10-16T23:42:53.806Z,13.03
2018-10-16T23:45:22.581Z,12.57
2018-10-16T23:47:51.421Z,14.50
2018-10-16T23:50:20.255Z,11.13
2018-10-16T23:52:49.062Z,12.70
2018-10-16T23:55:18.007Z,12.23
2018-10-16T23:57:46.753Z,11.57
